x

9410230 - La Jolla, Ca (ljac1) Weather Station

4:54 - Mon 31st Aug 2015 All times are PDT. -7 hours from GMT.

  • Wind
    13mph, 15mph gusts
  • Sea Temp 74°f
  • Aire Temp 71°f
  • Sea Pressure 1011.2mb
  • 9410230 - La Jolla, Ca
  • 9410230 - La Jolla, Ca

More Historic Weather Station data

Upgrade to MSW Pro to gain access to the past 30 days of data for over 8000 Wavebouys and Weather Stations around the globe.

Join Pro

Comparision Forecast

View Surf forecast
   
lun 08/31 4:54 13 15 mph 1011.2mb 74f 71f
4:48 11 14 mph 1011.3mb 74f 71f
4:42 13 15 mph 1011.3mb 74f 71f
4:36 11 14 mph 1011.3mb 74f 71f
4:00 13 16 mph 1011.2mb 76f 71f
3:54 10 15 mph 1011.2mb 76f 71f
3:48 13 14 mph 1011.3mb 76f 71f
3:42 11 14 mph 1011.4mb 76f 71f
3:36 10 14 mph 1011.4mb 76f 71f
3:30 13 15 mph 1011.5mb 76f 71f
3:24 11 15 mph 1011.6mb 76f 72f
3:18 11 15 mph 1011.7mb 76f 71f
3:12 13 15 mph 1011.7mb 76f 71f
3:06 11 15 mph 1011.8mb 76f 71f
3:00 13 16 mph 1011.8mb 76f 71f
2:54 13 15 mph 1011.8mb 76f 71f
2:48 13 15 mph 1011.9mb 76f 71f
2:42 14 17 mph 1012mb 76f 71f
2:36 13 15 mph 1012mb 76f 71f
2:30 13 15 mph 1012.1mb 76f 71f
2:24 14 17 mph 1012.2mb 76f 70f
2:18 14 15 mph 1012.2mb 75f 71f
2:12 13 15 mph 1012.3mb 75f 71f
2:06 14 16 mph 1012.3mb 76f 71f
2:00 11 15 mph 1012.3mb 75f 71f
1:54 13 15 mph 1012.3mb 74f 71f
1:48 13 15 mph 1012.4mb 74f 71f
1:42 14 16 mph 1012.4mb 72f 71f
1:36 13 17 mph 1012.5mb 70f 71f
1:30 13 17 mph 1012.5mb 70f 71f
1:24 14 16 mph 1012.6mb 70f 70f
1:18 13 16 mph 1012.6mb 70f 70f
1:12 13 15 mph 1012.6mb 70f 71f
1:06 14 16 mph 1012.6mb 71f 71f
1:00 13 17 mph 1012.7mb 71f 71f
12:54 14 18 mph 1012.8mb 72f 70f
12:48 15 18 mph 1012.8mb 74f 71f
12:42 14 18 mph 1012.8mb 75f 71f
12:36 14 16 mph 1012.8mb 75f 70f
12:30 13 18 mph 1012.9mb 76f 71f
12:24 14 16 mph 1012.9mb 76f 71f
12:18 13 16 mph 1012.9mb 75f 71f
12:12 15 17 mph 1012.8mb 75f 71f
12:06 14 17 mph 1012.8mb 75f 71f
12:00 15 20 mph 1012.8mb 75f 71f
11:54 14 16 mph 1012.9mb 75f 71f
11:48 15 17 mph 1012.9mb 75f 71f
11:42 14 17 mph 1013mb 75f 71f
11:36 14 20 mph 1013.1mb 75f 71f
11:30 16 18 mph 1013.1mb 75f 71f
11:24 15 17 mph 1013.1mb 75f 71f
11:18 13 15 mph 1013.1mb 75f 71f
11:12 14 17 mph 1013.1mb 75f 71f
11:06 11 17 mph 1013.1mb 75f 72f
11:00 6 9 mph 1013.1mb 75f 72f
10:54 11 15 mph 1013.2mb 75f 71f
10:48 9 15 mph 1013.2mb 75f 72f
10:42 6 14 mph 1013.3mb 75f 73f
10:36 8 14 mph 1013.3mb 74f 72f
10:30 11 14 mph 1013.4mb 74f 72f
10:24 11 16 mph 1013.3mb 74f 72f
10:18 13 18 mph 1013.3mb 74f 71f
10:12 7 17 mph 1013.3mb 75f 72f
10:06 10 15 mph 1013.3mb 75f 71f
10:00 7 11 mph 1013.2mb 75f 72f
9:54 9 14 mph 1013.3mb 75f 71f
9:48 6 16 mph 1013.3mb 75f 71f
9:42 11 14 mph 1013.2mb 75f 71f
9:36 11 14 mph 1013.2mb 75f 71f
9:30 8 10 mph 1013.1mb 74f 71f
9:24 10 15 mph 1013mb 74f 70f
9:18 13 16 mph 1013mb 74f 70f
9:12 8 14 mph 1012.9mb 74f 70f
9:06 11 14 mph 1012.9mb 74f 70f
9:00 10 14 mph 1012.8mb 74f 70f
vie 08/28 10:30 1 2 mph 1012.2mb 72f 79f
10:24 2
mph
1012.3mb 72f 78f
10:18 1 3 mph 1012.3mb 72f 79f
10:12 2 3 mph 1012.2mb 72f 78f
10:06 2 3 mph 1012.2mb 72f 78f
10:00  -  1 mph 1012.2mb 72f 79f
9:54 1 2 mph 1012.1mb 72f 78f
9:48 1 2 mph 1012.1mb 71f 79f
9:42 1 2 mph 1012.1mb 71f 79f
9:36  -  2 mph 1012.2mb 71f 78f
9:30 2 3 mph 1012.2mb 71f 78f
9:24 2 3 mph 1012.2mb 71f 78f
9:18 1 3 mph 1012.3mb 72f 77f
9:12 3
mph
1012.3mb 72f 77f
9:06 2
mph
1012.2mb 72f 77f
9:00 1
mph
1012.2mb 72f 77f
8:54 1 3 mph 1012.3mb 72f 76f
8:48 2
mph
1012.2mb 72f 76f
8:42 1 2 mph 1012.2mb 72f 78f
8:36 1 2 mph 1012.2mb 72f 78f
8:30 2 3 mph 1012.2mb 72f 77f
8:24 2
mph
1012.2mb 73f 78f
8:18  -  1 mph 1012.1mb 73f 79f
8:12  -  1 mph 1012.1mb 73f 78f
8:06 1 2 mph 1012.2mb 73f 77f
8:00 2 3 mph 1012.2mb 73f 77f
7:54 1
mph
1012.2mb 74f 78f
7:48  -  2 mph 1012.1mb 74f 78f
7:42 2
mph
1012.1mb 74f 76f
7:36  -  1 mph 1012.1mb 73f 76f
7:30  -  2 mph 1012mb 74f 76f
7:24 1 2 mph 1011.9mb 74f 75f
7:18 1 2 mph 1011.9mb 74f 74f
7:12 2 3 mph 1011.9mb 74f 73f
7:06 1 2 mph 1011.9mb 73f 73f
7:00 2
mph
1012mb 73f 73f
6:54 2
mph
1011.9mb 73f 73f
6:48 1 2 mph 1011.8mb 73f 73f
6:42 2 3 mph 1011.8mb 73f 73f
6:36 2
mph
1011.8mb 73f 73f
6:30 2
mph
1011.6mb 73f 73f
6:24 1
mph
1011.6mb 73f 73f
6:18  -  1 mph 1011.5mb 73f 73f
6:12  -  2 mph 1011.6mb 72f 73f
6:06 1 2 mph 1011.5mb 72f 73f
6:00 2
mph
1011.5mb 73f 72f
5:54 2
mph
1011.5mb 73f 72f
5:48  -  1 mph 1011.5mb 73f 72f
5:42 1
mph
1011.5mb 73f 72f
5:36  -  2 mph 1011.6mb 73f 72f
5:30 2
mph
1011.5mb 73f 73f
5:24 1
mph
1011.5mb 73f 73f
5:18  -  mph 1011.4mb 73f 73f
5:12  -  1 mph 1011.4mb 73f 73f
5:06  -  2 mph 1011.3mb 73f 73f
5:00 2
mph
1011.3mb 74f 73f
4:54  -  2 mph 1011.4mb 74f 72f
4:48 1 2 mph 1011.4mb 74f 72f
4:42 1 2 mph 1011.4mb 74f 72f
4:36 1 2 mph 1011.5mb 74f 72f
4:30 2
mph
1011.5mb 74f 72f
4:24 2
mph
1011.5mb 74f 72f
4:18 1 2 mph 1011.4mb 74f 72f
4:12  -  1 mph 1011.4mb 74f 72f
4:06  -  1 mph 1011.5mb 74f 72f
4:00 1 2 mph 1011.5mb 74f 72f
3:54 1
mph
1011.5mb 74f 72f
3:48  -  1 mph 1011.5mb 74f 72f
3:42  -  1 mph 1011.5mb 74f 72f
3:36  -  1 mph 1011.6mb 74f 72f
3:30 1
mph
1011.7mb 73f 72f
3:24  -  1 mph 1011.7mb 73f 72f
3:18  -  1 mph 1011.7mb 73f 72f
3:12  -  1 mph 1011.7mb 73f 72f
3:06  -  1 mph 1011.7mb 73f 73f
3:00  -  1 mph 1011.7mb 73f 73f
2:54  -  1 mph 1011.8mb 73f 73f
2:48  -  1 mph 1011.8mb 73f 73f
2:42  -  1 mph 1011.8mb 73f 73f
2:36  -  1 mph 1011.9mb 73f 73f
2:30 1 2 mph 1012mb 73f 73f
2:24 2
mph
1012mb 73f 73f
2:18 1
mph
1012mb 73f 73f
2:12  -  1 mph 1012mb 73f 73f
2:06 1 2 mph 1012mb 73f 73f
2:00 1 2 mph 1012.1mb 73f 73f
1:54 3
mph
1012.2mb 73f 73f
1:48 3
mph
1012.2mb 73f 73f
1:42 2
mph
1012.2mb 73f 73f
1:36  -  2 mph 1012.3mb 73f 73f
1:30 2
mph
1012.4mb 74f 73f
1:24 1 2 mph 1012.5mb 74f 73f
1:18 1
mph
1012.5mb 73f 73f
1:12 1
mph
1012.4mb 73f 73f
1:06  -  1 mph 1012.4mb 73f 73f
1:00 2 5 mph 1012.5mb 73f 73f